createdAt,value
2022-12-25T00:01:50.383Z,69.97
2022-12-25T00:04:12.803Z,69.07
2022-12-25T00:06:35.242Z,71.60
2022-12-25T00:08:57.657Z,63.97
2022-12-25T00:11:20.333Z,60.30
2022-12-25T00:13:42.923Z,66.38
2022-12-25T00:16:25.033Z,60.10
2022-12-25T00:18:47.650Z,66.15
2022-12-25T00:21:10.823Z,60.00
2022-12-25T00:23:35.010Z,59.55
2022-12-25T00:25:57.438Z,61.35
2022-12-25T00:28:20.164Z,56.10
2022-12-25T00:30:42.527Z,63.30
2022-12-25T00:33:04.866Z,55.63
2022-12-25T00:35:27.259Z,54.58
2022-12-25T00:37:49.594Z,59.35
2022-12-25T00:40:12.448Z,55.58
2022-12-25T00:42:34.796Z,61.30
2022-12-25T00:44:57.219Z,54.03
2022-12-25T00:47:19.695Z,56.28
2022-12-25T00:49:42.164Z,58.10
2022-12-25T00:52:04.744Z,57.80
2022-12-25T00:54:27.160Z,55.47
2022-12-25T00:56:49.605Z,55.53
2022-12-25T00:59:12.291Z,55.58
2022-12-25T01:01:34.861Z,52.17
2022-12-25T01:03:57.319Z,56.28
2022-12-25T01:06:19.685Z,60.80
2022-12-25T01:09:01.108Z,51.23
2022-12-25T01:11:23.495Z,56.45
2022-12-25T01:13:45.834Z,56.25
2022-12-25T01:16:11.669Z,57.77
2022-12-25T01:18:34.085Z,55.38
2022-12-25T01:20:56.469Z,56.25
2022-12-25T01:23:18.806Z,57.67
2022-12-25T01:25:41.268Z,50.53
2022-12-25T01:28:03.730Z,59.55
2022-12-25T01:30:26.097Z,57.22
2022-12-25T01:32:48.485Z,57.75
2022-12-25T01:35:12.120Z,53.85
2022-12-25T01:37:34.526Z,60.15
2022-12-25T01:39:56.951Z,52.95
2022-12-25T01:42:20.888Z,52.67
2022-12-25T01:44:46.229Z,57.80
2022-12-25T01:47:08.611Z,54.55
2022-12-25T01:49:31.061Z,63.53
2022-12-25T01:51:57.785Z,54.88
2022-12-25T01:54:29.606Z,55.45
2022-12-25T01:56:52.532Z,56.10
2022-12-25T01:59:16.453Z,54.17
2022-12-25T02:01:38.958Z,62.55
2022-12-25T02:04:16.275Z,65.93
2022-12-25T02:06:38.611Z,62.10
2022-12-25T02:09:01.012Z,66.80
2022-12-25T02:11:42.042Z,63.00
2022-12-25T02:14:04.387Z,65.50
2022-12-25T02:16:29.390Z,58.38
2022-12-25T02:19:08.923Z,56.20
2022-12-25T02:21:53.000Z,59.17
2022-12-25T02:24:31.512Z,59.95
2022-12-25T02:27:41.570Z,59.55
2022-12-25T02:30:08.345Z,65.20
2022-12-25T02:32:32.376Z,64.43
2022-12-25T02:35:03.461Z,62.03
2022-12-25T02:37:49.004Z,60.08
2022-12-25T02:40:53.469Z,69.07
2022-12-25T02:43:55.309Z,68.30
2022-12-25T02:46:38.013Z,65.15
2022-12-25T02:49:42.934Z,62.65
2022-12-25T02:52:31.215Z,68.07
2022-12-25T02:55:16.977Z,62.92
2022-12-25T02:58:02.130Z,65.47
2022-12-25T03:00:43.027Z,59.75
2022-12-25T03:03:25.189Z,64.18
2022-12-25T03:06:06.357Z,65.07
2022-12-25T03:08:40.593Z,64.20
2022-12-25T03:11:24.664Z,68.80
2022-12-25T03:13:49.580Z,71.07
2022-12-25T03:16:41.335Z,67.82
2022-12-25T03:19:23.668Z,73.13
2022-12-25T03:22:04.565Z,68.68
2022-12-25T03:24:52.795Z,71.25
2022-12-25T03:27:15.167Z,66.32
2022-12-25T03:29:56.292Z,72.50
2022-12-25T03:32:43.230Z,84.45
2022-12-25T03:35:23.836Z,72.85
2022-12-25T03:38:52.150Z,74.13
2022-12-25T03:42:04.363Z,73.32
2022-12-25T03:44:58.558Z,64.72
2022-12-25T03:47:34.112Z,73.63
2022-12-25T03:50:42.558Z,69.93
2022-12-25T03:53:28.820Z,75.03
2022-12-25T03:56:09.815Z,75.38
2022-12-25T03:58:50.510Z,73.57
2022-12-25T04:01:32.495Z,78.40
2022-12-25T04:04:13.610Z,84.10
2022-12-25T04:06:54.193Z,77.15
2022-12-25T04:09:35.355Z,82.35
2022-12-25T04:12:16.428Z,69.15
2022-12-25T04:14:57.546Z,72.07
2022-12-25T04:17:38.712Z,72.25
2022-12-25T04:20:19.634Z,72.40
2022-12-25T04:23:00.726Z,87.10
2022-12-25T04:25:41.870Z,78.43
2022-12-25T04:28:22.987Z,79.97
2022-12-25T04:31:04.090Z,92.35
2022-12-25T04:33:45.204Z,89.57
2022-12-25T04:36:14.087Z,75.43
2022-12-25T04:38:37.072Z,75.78
2022-12-25T04:41:00.649Z,77.07
2022-12-25T04:43:25.211Z,78.85
2022-12-25T04:45:54.348Z,69.63
2022-12-25T04:48:16.692Z,80.53
2022-12-25T04:50:39.093Z,83.47
2022-12-25T04:53:01.422Z,85.28
2022-12-25T04:55:23.799Z,83.30
2022-12-25T04:57:46.307Z,82.82
2022-12-25T05:00:09.495Z,87.00
2022-12-25T05:04:54.618Z,80.68
2022-12-25T05:07:16.969Z,88.03
2022-12-25T05:09:41.862Z,97.57
2022-12-25T05:12:04.710Z,86.20
2022-12-25T05:14:27.127Z,85.03
2022-12-25T05:16:49.528Z,76.30
2022-12-25T05:19:11.890Z,90.15
2022-12-25T05:21:34.274Z,84.57
2022-12-25T05:23:56.664Z,84.72
2022-12-25T05:26:21.885Z,82.03
2022-12-25T05:28:44.296Z,86.68
2022-12-25T05:31:06.890Z,92.88
2022-12-25T05:33:29.269Z,87.28
2022-12-25T05:35:51.608Z,86.53
2022-12-25T05:38:14.021Z,84.77
2022-12-25T05:40:39.945Z,84.90
2022-12-25T05:43:02.334Z,81.20
2022-12-25T05:45:24.684Z,75.78
2022-12-25T05:47:47.090Z,80.17
2022-12-25T05:50:10.834Z,78.68
2022-12-25T05:52:33.893Z,76.43
2022-12-25T05:54:56.246Z,78.25
2022-12-25T05:57:18.608Z,78.38
2022-12-25T05:59:40.959Z,71.93
2022-12-25T06:02:03.431Z,71.43
2022-12-25T06:04:26.864Z,84.10
2022-12-25T06:06:49.268Z,77.32
2022-12-25T06:09:13.416Z,82.10
2022-12-25T06:11:35.774Z,80.15
2022-12-25T06:13:58.158Z,83.55
2022-12-25T06:16:20.759Z,85.68
2022-12-25T06:18:45.322Z,80.80
2022-12-25T06:21:12.474Z,77.43
2022-12-25T06:23:35.499Z,77.88
2022-12-25T06:28:20.882Z,81.07
2022-12-25T06:30:43.265Z,81.60
2022-12-25T06:33:05.674Z,87.40
2022-12-25T06:35:28.060Z,81.60
2022-12-25T06:37:50.391Z,82.43
2022-12-25T06:40:13.336Z,85.47
2022-12-25T06:42:35.701Z,80.97
2022-12-25T06:44:58.021Z,87.75
2022-12-25T06:47:20.344Z,82.88
2022-12-25T06:49:42.680Z,81.70
2022-12-25T06:52:05.240Z,80.13
2022-12-25T06:54:27.665Z,86.30
2022-12-25T06:56:51.151Z,91.35
2022-12-25T06:59:13.485Z,95.55
2022-12-25T07:01:47.497Z,99.72
2022-12-25T07:04:19.895Z,95.38
2022-12-25T07:06:42.361Z,91.95
2022-12-25T07:09:04.711Z,88.88
2022-12-25T07:11:27.150Z,76.30
2022-12-25T07:13:49.549Z,75.85
2022-12-25T07:16:12.476Z,74.88
2022-12-25T07:18:35.078Z,80.68
2022-12-25T07:20:59.491Z,83.57
2022-12-25T07:23:25.915Z,72.80
2022-12-25T07:25:59.027Z,69.63
2022-12-25T07:28:21.445Z,78.20
2022-12-25T07:30:43.809Z,69.88
2022-12-25T07:33:06.184Z,71.17
2022-12-25T07:35:28.529Z,77.67
2022-12-25T07:37:50.898Z,76.00
2022-12-25T07:40:13.464Z,76.93
2022-12-25T07:42:35.854Z,65.78
2022-12-25T07:44:58.208Z,72.07
2022-12-25T07:47:20.551Z,72.47
2022-12-25T07:49:42.892Z,73.83
2022-12-25T07:52:05.431Z,66.35
2022-12-25T07:54:27.778Z,75.57
2022-12-25T07:56:53.490Z,67.00
2022-12-25T07:59:15.820Z,72.88
2022-12-25T08:01:38.312Z,77.90
2022-12-25T08:04:02.010Z,76.03
2022-12-25T08:06:30.002Z,74.72
2022-12-25T08:08:52.541Z,75.30
2022-12-25T08:11:15.111Z,79.15
2022-12-25T08:13:37.515Z,75.25
2022-12-25T08:16:01.608Z,74.15
2022-12-25T08:18:29.423Z,73.53
2022-12-25T08:20:52.425Z,79.32
2022-12-25T08:23:14.789Z,79.55
2022-12-25T08:25:37.187Z,78.00
2022-12-25T08:28:01.405Z,77.57
2022-12-25T08:30:23.778Z,73.65
2022-12-25T08:32:46.391Z,74.43
2022-12-25T08:35:09.167Z,74.80
2022-12-25T08:37:31.562Z,77.55
2022-12-25T08:39:53.981Z,73.68
2022-12-25T08:42:16.495Z,72.10
2022-12-25T08:44:38.918Z,72.55
2022-12-25T08:47:01.271Z,82.10
2022-12-25T08:49:23.715Z,83.60
2022-12-25T08:51:46.299Z,86.80
2022-12-25T08:54:09.110Z,77.18
2022-12-25T08:56:31.529Z,73.82
2022-12-25T08:58:53.980Z,84.35
2022-12-25T09:01:16.450Z,87.22
2022-12-25T09:03:39.163Z,79.88
2022-12-25T09:06:07.039Z,81.70
2022-12-25T09:08:29.457Z,77.18
2022-12-25T09:10:51.867Z,88.25
2022-12-25T09:13:14.473Z,77.30
2022-12-25T09:15:38.861Z,81.90
2022-12-25T09:18:01.379Z,83.60
2022-12-25T09:20:23.731Z,87.25
2022-12-25T09:22:46.102Z,81.90
2022-12-25T09:25:09.170Z,77.07
2022-12-25T09:27:31.641Z,98.85
2022-12-25T09:29:54.063Z,86.80
2022-12-25T09:32:16.444Z,88.25
2022-12-25T09:34:38.803Z,88.28
2022-12-25T09:37:01.449Z,89.68
2022-12-25T09:39:23.817Z,83.57
2022-12-25T09:42:16.636Z,93.73
2022-12-25T09:44:45.053Z,89.22
2022-12-25T09:47:12.259Z,93.22
2022-12-25T09:50:02.176Z,88.78
2022-12-25T09:52:19.500Z,81.95
2022-12-25T09:54:29.379Z,87.30
2022-12-25T09:56:32.616Z,87.68
2022-12-25T09:58:34.685Z,90.65
2022-12-25T10:00:42.577Z,87.70
2022-12-25T10:02:56.247Z,91.35
2022-12-25T10:05:11.141Z,93.68
2022-12-25T10:07:55.091Z,93.28
2022-12-25T10:10:17.112Z,100.20
2022-12-25T10:12:38.344Z,97.20
2022-12-25T10:15:32.000Z,98.57
2022-12-25T10:18:15.590Z,91.93
2022-12-25T10:22:44.209Z,98.03
2022-12-25T10:24:52.632Z,107.82
2022-12-25T10:26:55.615Z,108.35
2022-12-25T10:31:26.624Z,105.60
2022-12-25T10:33:29.385Z,104.50
2022-12-25T10:35:32.970Z,119.35
2022-12-25T10:37:35.810Z,111.13
2022-12-25T10:39:45.866Z,94.65
2022-12-25T10:42:20.737Z,98.45
2022-12-25T10:44:26.710Z,110.25
2022-12-25T10:46:29.090Z,93.45
2022-12-25T10:48:32.703Z,98.15
2022-12-25T10:50:35.484Z,100.10
2022-12-25T10:52:55.412Z,112.20
2022-12-25T10:54:57.839Z,101.38
2022-12-25T10:57:13.207Z,104.30
2022-12-25T10:59:15.514Z,100.80
2022-12-25T11:01:17.657Z,118.72
2022-12-25T11:05:32.534Z,107.93
2022-12-25T11:07:46.854Z,102.93
2022-12-25T11:09:59.309Z,101.82
2022-12-25T11:12:06.117Z,105.53
2022-12-25T11:14:17.124Z,103.13
2022-12-25T11:16:40.026Z,107.25
2022-12-25T11:20:52.058Z,107.78
2022-12-25T11:22:54.149Z,117.63
2022-12-25T11:24:56.907Z,111.13
2022-12-25T11:27:05.147Z,106.55
2022-12-25T11:29:29.091Z,114.05
2022-12-25T11:31:40.779Z,117.80
2022-12-25T11:33:53.240Z,122.55
2022-12-25T11:37:58.729Z,106.80
2022-12-25T11:40:00.856Z,127.18
2022-12-25T11:42:21.730Z,128.90
2022-12-25T11:45:13.856Z,114.18
2022-12-25T11:47:37.710Z,117.03
2022-12-25T11:49:54.966Z,119.53
2022-12-25T11:52:01.513Z,113.60
2022-12-25T11:56:25.597Z,107.00
2022-12-25T11:58:51.087Z,101.15
2022-12-25T12:00:56.567Z,106.97
2022-12-25T12:03:14.742Z,104.20
2022-12-25T12:05:46.287Z,116.78
2022-12-25T12:08:04.243Z,121.13
2022-12-25T12:10:21.789Z,104.57
2022-12-25T12:12:48.269Z,110.60
2022-12-25T12:14:58.745Z,105.97
2022-12-25T12:17:01.707Z,122.95
2022-12-25T12:19:30.058Z,106.40
2022-12-25T12:21:32.382Z,98.47
2022-12-25T12:24:06.623Z,120.07
2022-12-25T12:26:08.846Z,105.18
2022-12-25T12:28:23.219Z,95.15
2022-12-25T12:30:31.584Z,97.70
2022-12-25T12:32:44.333Z,100.40
2022-12-25T12:34:49.729Z,105.85
2022-12-25T12:36:56.104Z,98.85
2022-12-25T12:38:58.783Z,106.72
2022-12-25T12:41:05.552Z,103.57
2022-12-25T12:43:38.643Z,101.35
2022-12-25T12:45:40.982Z,101.20
2022-12-25T12:47:46.665Z,95.82
2022-12-25T12:50:00.145Z,96.95
2022-12-25T12:52:24.665Z,107.50
2022-12-25T12:54:27.973Z,92.43
2022-12-25T12:56:33.472Z,99.10
2022-12-25T12:58:38.087Z,107.68
2022-12-25T13:00:49.817Z,106.60
2022-12-25T13:03:20.527Z,96.22
2022-12-25T13:05:39.657Z,100.15
2022-12-25T13:08:18.503Z,104.13
2022-12-25T13:10:46.382Z,105.05
2022-12-25T13:13:00.974Z,91.60
2022-12-25T13:15:03.460Z,83.57
2022-12-25T13:17:07.506Z,91.35
2022-12-25T13:19:15.850Z,95.43
2022-12-25T13:21:28.873Z,98.75
2022-12-25T13:25:39.126Z,78.50
2022-12-25T13:27:42.286Z,79.40
2022-12-25T13:29:44.720Z,91.93
2022-12-25T13:31:46.811Z,85.25
2022-12-25T13:36:16.243Z,72.10
2022-12-25T13:38:18.628Z,62.28
2022-12-25T13:40:26.629Z,50.30
2022-12-25T13:42:32.272Z,58.17
2022-12-25T13:44:47.193Z,53.72
2022-12-25T13:46:49.421Z,46.97
2022-12-25T13:49:00.665Z,46.65
2022-12-25T13:51:14.044Z,63.67
2022-12-25T13:53:34.556Z,73.80
2022-12-25T13:55:55.937Z,55.33
2022-12-25T14:00:50.516Z,46.63
2022-12-25T14:03:39.470Z,42.17
2022-12-25T14:06:29.327Z,52.53
2022-12-25T14:08:51.823Z,51.40
2022-12-25T14:11:16.038Z,53.40
2022-12-25T14:13:40.996Z,41.53
2022-12-25T14:16:03.356Z,48.45
2022-12-25T14:18:25.981Z,48.63
2022-12-25T14:21:16.429Z,70.05
2022-12-25T14:23:46.240Z,74.35
2022-12-25T14:26:18.057Z,66.88
2022-12-25T14:28:40.484Z,66.60
2022-12-25T14:31:02.902Z,75.70
2022-12-25T14:33:25.404Z,80.95
2022-12-25T14:35:48.005Z,69.85
2022-12-25T14:38:24.542Z,75.55
2022-12-25T14:40:46.925Z,86.88
2022-12-25T14:43:23.803Z,91.15
2022-12-25T14:45:56.036Z,83.45
2022-12-25T14:48:25.516Z,86.00
2022-12-25T14:51:05.857Z,90.88
2022-12-25T14:53:47.574Z,73.03
2022-12-25T14:56:12.986Z,71.43
2022-12-25T14:58:41.015Z,69.93
2022-12-25T15:01:04.500Z,77.28
2022-12-25T15:03:34.458Z,74.05
2022-12-25T15:06:05.261Z,74.45
2022-12-25T15:08:28.087Z,75.35
2022-12-25T15:11:00.545Z,74.78
2022-12-25T15:13:25.061Z,67.07
2022-12-25T15:16:14.275Z,68.55
2022-12-25T15:18:39.837Z,65.85
2022-12-25T15:21:02.313Z,68.10
2022-12-25T15:23:25.642Z,67.07
2022-12-25T15:28:13.167Z,61.20
2022-12-25T15:30:39.324Z,62.15
2022-12-25T15:33:01.942Z,66.63
2022-12-25T15:35:24.916Z,62.78
2022-12-25T15:37:47.599Z,74.03
2022-12-25T15:40:13.195Z,74.13
2022-12-25T15:42:35.577Z,82.35
2022-12-25T15:44:58.003Z,80.47
2022-12-25T15:47:20.406Z,81.10
2022-12-25T15:49:42.993Z,77.75
2022-12-25T15:52:12.489Z,78.80
2022-12-25T15:54:34.894Z,74.97
2022-12-25T15:56:59.447Z,77.00
2022-12-25T15:59:22.008Z,84.30
2022-12-25T16:01:53.361Z,77.18
2022-12-25T16:04:15.921Z,90.63
2022-12-25T16:06:38.294Z,86.93
2022-12-25T16:09:00.641Z,90.13
2022-12-25T16:11:23.001Z,89.57
2022-12-25T16:13:45.402Z,83.80
2022-12-25T16:16:08.092Z,89.83
2022-12-25T16:18:30.735Z,89.95
2022-12-25T16:20:53.450Z,96.45
2022-12-25T16:23:15.872Z,93.90
2022-12-25T16:25:38.245Z,97.83
2022-12-25T16:28:03.177Z,106.53
2022-12-25T16:30:25.535Z,95.30
2022-12-25T16:32:49.736Z,104.83
2022-12-25T16:35:12.266Z,101.70
2022-12-25T16:37:35.452Z,101.43
2022-12-25T16:42:20.141Z,104.88
2022-12-25T16:44:42.798Z,100.43
2022-12-25T16:47:05.335Z,102.03
2022-12-25T16:49:27.705Z,85.57
2022-12-25T16:51:50.120Z,91.83
2022-12-25T16:54:12.472Z,106.75
2022-12-25T16:56:36.649Z,91.13
2022-12-25T16:58:59.464Z,100.85
2022-12-25T17:01:23.014Z,94.10
2022-12-25T17:03:46.471Z,89.72
2022-12-25T17:06:21.022Z,89.40
2022-12-25T17:08:43.763Z,80.47
2022-12-25T17:11:06.297Z,77.53
2022-12-25T17:13:28.740Z,82.60
2022-12-25T17:15:51.210Z,80.60
2022-12-25T17:18:13.614Z,71.07
2022-12-25T17:20:38.994Z,79.53
2022-12-25T17:23:01.421Z,89.05
2022-12-25T17:25:23.842Z,76.18
2022-12-25T17:27:50.619Z,81.03
2022-12-25T17:30:13.120Z,71.75
2022-12-25T17:32:35.602Z,70.82
2022-12-25T17:34:57.953Z,66.47
2022-12-25T17:37:20.387Z,71.37
2022-12-25T17:39:42.777Z,72.55
2022-12-25T17:42:05.246Z,80.60
2022-12-25T17:44:27.731Z,86.93
2022-12-25T17:46:50.833Z,74.75
2022-12-25T17:49:18.999Z,78.00
2022-12-25T17:51:41.380Z,77.45
2022-12-25T17:54:03.767Z,73.32
2022-12-25T17:56:26.360Z,75.95
2022-12-25T17:58:57.152Z,75.68
2022-12-25T18:01:19.866Z,70.55
2022-12-25T18:03:45.823Z,68.20
2022-12-25T18:06:10.430Z,71.57
2022-12-25T18:08:38.896Z,61.38
2022-12-25T18:11:08.078Z,66.85
2022-12-25T18:13:30.521Z,64.00
2022-12-25T18:15:52.909Z,62.33
2022-12-25T18:18:15.294Z,68.30
2022-12-25T18:20:40.272Z,68.45
2022-12-25T18:23:02.891Z,66.30
2022-12-25T18:25:25.378Z,68.28
2022-12-25T18:27:47.784Z,63.17
2022-12-25T18:30:10.646Z,65.13
2022-12-25T18:32:33.013Z,62.25
2022-12-25T18:34:55.607Z,67.43
2022-12-25T18:37:17.981Z,68.72
2022-12-25T18:39:40.384Z,78.80
2022-12-25T18:42:08.323Z,73.43
2022-12-25T18:44:10.948Z,82.07
2022-12-25T18:46:13.520Z,76.60
2022-12-25T18:48:34.402Z,81.57
2022-12-25T18:51:00.935Z,80.70
2022-12-25T18:53:03.506Z,87.03
2022-12-25T18:55:07.099Z,82.07
2022-12-25T18:57:10.650Z,87.00
2022-12-25T18:59:12.810Z,87.55
2022-12-25T19:01:20.850Z,89.88
2022-12-25T19:03:23.403Z,80.93
2022-12-25T19:05:26.230Z,80.18
2022-12-25T19:09:31.713Z,74.47
2022-12-25T19:11:34.096Z,69.55
2022-12-25T19:13:36.794Z,72.22
2022-12-25T19:15:43.504Z,74.53
2022-12-25T19:17:46.145Z,76.28
2022-12-25T19:19:48.194Z,66.97
2022-12-25T19:21:57.369Z,70.68
2022-12-25T19:24:00.201Z,65.75
2022-12-25T19:26:05.727Z,78.68
2022-12-25T19:28:08.230Z,218.18
2022-12-25T19:30:11.658Z,143.18
2022-12-25T19:32:14.123Z,188.88
2022-12-25T19:36:19.527Z,85.95
2022-12-25T19:38:27.360Z,78.90
2022-12-25T19:40:29.596Z,73.82
2022-12-25T19:44:35.577Z,80.15
2022-12-25T19:46:40.719Z,75.85
2022-12-25T19:48:43.115Z,66.82
2022-12-25T19:50:45.961Z,68.95
2022-12-25T19:52:49.111Z,59.42
2022-12-25T19:54:55.017Z,58.13
2022-12-25T19:56:57.611Z,59.67
2022-12-25T19:59:00.836Z,58.63
2022-12-25T20:01:10.798Z,64.22
2022-12-25T20:03:13.687Z,58.65
2022-12-25T20:05:15.989Z,60.55
2022-12-25T20:07:20.576Z,64.60
2022-12-25T20:09:24.232Z,60.30
2022-12-25T20:11:27.980Z,59.55
2022-12-25T20:13:30.800Z,57.70
2022-12-25T20:15:33.096Z,70.80
2022-12-25T20:17:35.648Z,58.58
2022-12-25T20:19:38.163Z,59.15
2022-12-25T20:23:44.560Z,62.00
2022-12-25T20:25:47.558Z,58.75
2022-12-25T20:27:49.726Z,65.63
2022-12-25T20:29:52.607Z,58.97
2022-12-25T20:31:54.852Z,59.92
2022-12-25T20:34:01.173Z,64.10
2022-12-25T20:36:04.465Z,62.95
2022-12-25T20:38:06.839Z,66.35
2022-12-25T20:40:10.795Z,69.35
2022-12-25T20:42:13.337Z,70.53
2022-12-25T20:44:15.700Z,69.53
2022-12-25T20:48:20.496Z,71.70
2022-12-25T20:50:22.664Z,72.45
2022-12-25T20:52:24.789Z,74.60
2022-12-25T20:54:26.947Z,73.85
2022-12-25T20:56:31.247Z,68.78
2022-12-25T20:58:33.301Z,76.70
2022-12-25T21:00:38.207Z,72.65
2022-12-25T21:02:40.573Z,84.20
2022-12-25T21:04:44.871Z,70.65
2022-12-25T21:06:49.464Z,83.40
2022-12-25T21:10:56.376Z,102.20
2022-12-25T21:12:58.990Z,112.85
2022-12-25T21:15:02.121Z,87.50
2022-12-25T21:17:04.640Z,77.93
2022-12-25T21:19:06.781Z,74.50
2022-12-25T21:21:09.192Z,73.90
2022-12-25T21:23:12.155Z,75.20
2022-12-25T21:27:17.884Z,74.28
2022-12-25T21:29:23.012Z,78.78
2022-12-25T21:31:26.557Z,65.07
2022-12-25T21:33:47.692Z,73.38
2022-12-25T21:35:50.004Z,74.22
2022-12-25T21:37:52.134Z,72.80
2022-12-25T21:39:54.755Z,71.65
2022-12-25T21:41:57.492Z,65.95
2022-12-25T21:43:59.972Z,68.57
2022-12-25T21:48:09.433Z,66.85
2022-12-25T21:50:34.658Z,61.60
2022-12-25T21:52:39.677Z,68.15
2022-12-25T21:54:42.268Z,67.43
2022-12-25T21:56:47.183Z,67.60
2022-12-25T21:58:51.460Z,70.57
2022-12-25T22:00:53.847Z,65.38
2022-12-25T22:04:58.985Z,59.28
2022-12-25T22:07:19.659Z,59.88
2022-12-25T22:09:22.405Z,56.25
2022-12-25T22:11:44.608Z,96.72
2022-12-25T22:14:06.524Z,131.37
2022-12-25T22:16:27.667Z,175.95
2022-12-25T22:18:49.038Z,67.90
2022-12-25T22:20:52.021Z,64.47
2022-12-25T22:22:54.674Z,63.00
2022-12-25T22:24:59.717Z,62.63
2022-12-25T22:27:01.893Z,62.55
2022-12-25T22:29:04.868Z,59.35
2022-12-25T22:31:07.920Z,53.88
2022-12-25T22:33:11.046Z,64.53
2022-12-25T22:35:14.211Z,57.05
2022-12-25T22:37:18.037Z,73.10
2022-12-25T22:39:20.679Z,63.25
2022-12-25T22:41:27.022Z,75.65
2022-12-25T22:44:14.527Z,77.90
2022-12-25T22:45:55.497Z,80.20
2022-12-25T22:50:00.778Z,73.32
2022-12-25T22:52:03.783Z,85.60
2022-12-25T22:54:06.573Z,76.78
2022-12-25T22:56:09.588Z,87.95
2022-12-25T22:58:12.501Z,82.07
2022-12-25T23:00:15.280Z,84.63
2022-12-25T23:02:18.481Z,76.82
2022-12-25T23:04:22.110Z,77.47
2022-12-25T23:06:29.371Z,84.70
2022-12-25T23:08:31.628Z,81.03
2022-12-25T23:10:33.916Z,83.30
2022-12-25T23:12:54.692Z,80.00
2022-12-25T23:14:57.560Z,78.00
2022-12-25T23:17:00.513Z,71.78
2022-12-25T23:19:23.533Z,66.22
2022-12-25T23:21:45.586Z,62.17
2022-12-25T23:24:07.309Z,62.90
2022-12-25T23:26:09.829Z,71.25
2022-12-25T23:28:11.946Z,67.25
2022-12-25T23:32:28.134Z,69.05
2022-12-25T23:34:31.166Z,67.22
2022-12-25T23:36:33.681Z,66.88
2022-12-25T23:38:35.714Z,65.43
2022-12-25T23:40:37.950Z,66.32
2022-12-25T23:42:39.991Z,64.63
2022-12-25T23:44:42.009Z,66.15
2022-12-25T23:46:52.592Z,60.25
2022-12-25T23:49:14.466Z,62.90
2022-12-25T23:51:45.203Z,64.03
2022-12-25T23:54:07.928Z,61.60
2022-12-25T23:56:30.306Z,65.50
2022-12-25T23:58:52.639Z,68.00
